Tiempo atmosférico en la estación meteorológica de Muñotello, Ávila (1178 m.)



Fecha
DESCASC
Temp. máxima en grados centígrados (hora)
DESCASC
Temp. mínima en grados centígrados (hora)
DESCASC
Temp. media en grados centígrados
DESCASC
Racha de viento máxima en m/sg (hora)
DESCASC
Velocidad máxima media en intervalos de 10 minutos(hora)
DESCASC
Precipitaciones diarias en mm
DESCASC
Precipitaciones de 00:00 a 06:00 en mm
DESCASC
Precipitaciones de 06:00 a 12:00 en mm
DESCASC
Precipitaciones de 12:00 a 18:00 en mm
DESCASC
Precipitaciones de 18:00 a 24:00 en mm
DESCASC
16-01-2020 11.8 (13:00) 4.6 (04:30) 8.2 19.17 (19:40) 11.39 (19:40) 0 0 0 0 0
15-01-2020 12.2 (15:30) 3.9 (00:00) 8 17.78 (05:30) 7.22 (14:10) 0 0 0 0 0
14-01-2020 7.9 (15:20) -4.3 (07:50) 1.8 6.11 (23:50) 3.61 (23:50) 0 0 0 0 0
13-01-2020 8.7 (15:50) -1.3 (04:40) 3.7 3.61 (20:40) 2.5 (18:20) 0 0 0 0 0
12-01-2020 10.3 (15:10) -1.9 (-00:0) 4.2 4.17 (15:20) 3.06 (15:20) 0 0 0 0 0
11-01-2020 8.9 (15:40) -3.7 (-00:0) 2.6 3.89 (18:00) 3.33 (18:20) 0 0 0 0 0
10-01-2020 5.6 (13:50) 0 (00:00) 2.8 8.33 (03:10) 6.11 (03:20) 0 0 0 0 0
09-01-2020 12.2 (15:10) 1.7 (00:00) 6.9 12.5 (17:30) 7.5 (13:40) 0 0 0 0 0
08-01-2020 15 (16:50) 1.2 (00:00) 8.1 3.33 (17:40) 2.78 (17:40) 0 0 0 0 0
07-01-2020 14.1 (15:50) 0.2 (00:00) 7.2 3.89 (04:50) 2.78 (04:40) 0 0 0 0 0
06-01-2020 13.6 (16:30) 0.9 (00:00) 7.3 3.89 (18:00) 3.33 (18:20) 0 0 0 0 0
05-01-2020 11.9 (16:10) -5.9 (-00:0) 3 3.06 (22:00) 2.5 (17:30) 0 0 0 0 0
04-01-2020 4.2 (15:40) -0.8 (-00:0) 1.7 5.28 (13:00) 3.61 (13:00) 0 0 0 0 0
03-01-2020 7.5 (16:20) -2.4 (-00:0) 2.5 4.72 (14:40) 2.22 (18:50) 0 0 0 0 0
02-01-2020 14 (14:30) 3.2 (00:00) 8.6 3.33 (21:10) 2.5 (20:10) 0 0 0 0 0
01-01-2020 14.8 (15:50) 3.4 (00:00) 9.1 3.61 (18:50) 2.78 (18:00) 0 0 0 0 0
31-12-2019 17.9 (15:00) 4.4 (00:00) 11.1 3.61 (17:20) 3.06 (17:20) 0 0 0 0 0
30-12-2019 -- (--) -- (--) -- -- (--) -- (--) -- 0 -- 0 --
29-12-2019 17.2 (13:40) 4.9 (00:00) 11.1 4.17 (18:30) 3.61 (18:30) 0 0 0 0 0
28-12-2019 18.2 (15:20) 3.5 (00:00) 10.9 5 (17:20) 3.61 (19:00) 0 0 0 0 0
27-12-2019 13.3 (16:40) 0.5 (00:00) 6.9 3.89 (17:30) 3.33 (17:50) 0 0 0 0 0
26-12-2019 10.7 (00:10) 2.6 (00:00) 6.6 4.17 (07:50) 3.06 (07:50) 0 0 0 0 0
25-12-2019 16.7 (15:50) 4.7 (00:00) 10.7 5.83 (16:10) 3.89 (16:10) 0 0 0 0 0
24-12-2019 14.3 (15:50) 4.7 (00:00) 9.5 3.33 (00:50) 2.78 (18:20) 0 0 0 0 0
23-12-2019 13.2 (16:20) 5.3 (00:00) 9.3 16.94 (00:30) 11.67 (00:50) 0 0 0 0 0
22-12-2019 11.1 (13:10) 5.5 (00:00) 8.3 26.67 (01:10) 15.56 (00:30) 2.8 2.4 0 0.4 0
21-12-2019 14.8 (11:00) 7.1 (00:00) 11 27.22 (21:20) 16.39 (21:20) 5.4 2.4 1.6 0.8 0.6
20-12-2019 13.3 (18:10) 8.4 (00:00) 10.8 32.5 (18:30) 16.11 (11:30) 34.8 12.6 0.2 13.2 8.8
19-12-2019 11.8 (23:20) 5.9 (00:00) 8.9 26.39 (19:10) 14.72 (05:20) 54.6 0.8 2.4 21.8 29.6

Gráficas

Temp. máximas Temp. mínimas Temp. medias Precipitaciones Rachas de viento máximas Velocidades máximas media en intervalos de 10 minutos

Datos horarios

Fecha y hora oficial Temperatura (ºC) Velocidad del viento (km/h) Dirección del viento Racha (km/h) Dirección de racha Precipitación (mm) Presión (hPa) Tendencia (hPa) Humedad (%)
2020-01-17 23:00:00 2.5 4 Sur 7 Oeste 0 -- -- 82
2020-01-17 22:00:00 2.5 4 Noroeste 7 Noroeste 0 -- -- 81
2020-01-17 21:00:00 3.3 2 Sudeste 9 Sudoeste 0 -- -- 76
2020-01-17 20:00:00 4.4 4 Sudoeste 10 Sudoeste 0 -- -- 73
2020-01-17 19:00:00 4.5 2 Sudeste 8 Oeste 0 -- -- 71
2020-01-17 18:00:00 5.9 3 Sudoeste 22 Oeste 0 -- -- 67
2020-01-17 17:00:00 7.9 14 Oeste 28 Oeste 0 -- -- 56
2020-01-17 16:00:00 7.9 17 Noroeste 28 Oeste 0 -- -- 59
2020-01-17 15:00:00 8.1 19 Oeste 34 Oeste 0 -- -- 63
2020-01-17 14:00:00 7.4 22 Oeste 33 Oeste 0 -- -- 76
2020-01-17 13:00:00 6.1 18 Oeste 31 Oeste 0 -- -- 82
2020-01-17 12:00:00 5.2 16 Oeste 32 Oeste 0.2 -- -- 87
2020-01-17 11:00:00 5.5 22 Oeste 48 Oeste 0 -- -- 88
2020-01-17 10:00:00 5.3 27 Oeste 46 Oeste 0.2 -- -- 85
2020-01-17 09:00:00 4.9 18 Oeste 34 Oeste 0 -- -- 85
2020-01-17 08:00:00 5.3 19 Oeste 31 Sudoeste 0 -- -- 75
2020-01-17 07:00:00 3.5 11 Oeste 20 Oeste 0 -- -- 82
2020-01-17 06:00:00 3.1 5 Noroeste 31 Sudoeste 0 -- -- 80
2020-01-17 05:00:00 5.4 17 Oeste 50 Oeste 0 -- -- 63
2020-01-17 04:00:00 6.7 17 Sudoeste 49 Oeste 0 -- -- 52
2020-01-17 03:00:00 6.8 14 Sudoeste 44 Sudoeste 0 -- -- 51
2020-01-17 02:00:00 6.7 11 Oeste 49 Sudoeste 0 -- -- 62
2020-01-17 01:00:00 7.5 33 Sudoeste 54 Sudoeste 0 -- -- 57
2020-01-17 00:00:00 7.4 17 Sudoeste 43 Sur 0 -- -- 66
2020-01-16 23:00:00 6.3 27 Sudoeste 48 Sur 0 -- -- 66
2020-01-16 22:00:00 7.2 29 Sur 54 Sur 0 -- -- 63
2020-01-16 21:00:00 8.1 17 Sur 48 Sudoeste 0 -- -- 49
2020-01-16 20:00:00 8.1 27 Sur 69 Sur 0 -- -- 50
2020-01-16 19:00:00 8.3 34 Sur 66 Sur 0 -- -- 44
2020-01-16 18:00:00 8.3 9 Sudeste 45 Nordeste 0 -- -- 45
2020-01-16 17:00:00 8.7 15 Oeste 34 Oeste 0 -- -- 50
2020-01-16 16:00:00 9.5 10 Oeste 59 Sur 0 -- -- 43
2020-01-16 15:00:00 10.3 19 Oeste 56 Sudeste 0 -- -- 41
2020-01-16 14:00:00 10.6 18 Sur 44 Sur 0 -- -- 40
2020-01-16 13:00:00 11.8 19 Sur 42 Sur 0 -- -- 41
2020-01-16 12:00:00 10.8 8 Nordeste 28 Sudoeste 0 -- -- 51
2020-01-16 11:00:00 8.7 11 Nordeste 23 Nordeste 0 -- -- 70
2020-01-16 10:00:00 8.7 9 Nordeste 41 Sudeste 0 -- -- 74
2020-01-16 09:00:00 7.7 8 Sur 35 Sudeste 0 -- -- 75
2020-01-16 08:00:00 7.2 10 Sudoeste 40 Sudeste 0 -- -- 78
2020-01-16 07:00:00 7.9 24 Sudeste 46 Sudeste 0 -- -- 77
2020-01-16 06:00:00 6.9 5 Noroeste 27 Norte 0 -- -- 80
2020-01-16 05:00:00 5 8 Noroeste 17 Oeste 0 -- -- 88
2020-01-16 04:00:00 5.2 7 Oeste 14 Sur 0 -- -- 87
2020-01-16 03:00:00 5.4 4 Oeste 18 Oeste 0 -- -- 87
2020-01-16 02:00:00 5.2 10 Oeste 31 Sur 0 -- -- 87
2020-01-16 01:00:00 7.3 26 Sudeste 36 Sudeste 0 -- -- 80
2020-01-16 00:00:00 5.4 4 Sudoeste 20 Sudoeste 0 -- -- 86
2020-01-15 23:00:00 5.4 9 Oeste 17 Sudoeste 0 -- -- 87
2020-01-15 22:00:00 5.4 7 Noroeste 18 Este 0 -- -- 84
2020-01-15 21:00:00 6 4 Sur 13 Noroeste 0 -- -- 85
2020-01-15 20:00:00 6.8 3 Este 14 Oeste 0 -- -- 83
2020-01-15 19:00:00 7.1 6 Sudoeste 25 Oeste 0 -- -- 82
2020-01-15 18:00:00 8.6 6 Oeste 23 Sur 0 -- -- 75
2020-01-15 17:00:00 10.3 10 Sudoeste 19 Sur 0 -- -- 65
2020-01-15 16:00:00 11.3 11 Sur 33 Sudoeste 0 -- -- 63
2020-01-15 15:00:00 12 13 Sudoeste 55 Sudoeste 0 -- -- 60
2020-01-15 14:00:00 9.7 8 Oeste 29 Oeste 0 -- -- 72
2020-01-15 13:00:00 9.8 13 Oeste 30 Sudoeste 0 -- -- 73
2020-01-15 12:00:00 7.8 16 Este 27 Este 0 -- -- 72
2020-01-15 11:00:00 7.3 7 Noroeste 21 Este 0 -- -- 71
2020-01-15 10:00:00 5.7 10 Este 24 Nordeste 0 -- -- 75
2020-01-15 09:00:00 6.5 14 Sur 32 Sur 0 -- -- 69
2020-01-15 08:00:00 5.6 14 Este 36 Este 0 -- -- 74
2020-01-15 07:00:00 5.8 8 Este 32 Sudoeste 0 -- -- 65
2020-01-15 06:00:00 6.4 15 Norte 64 Sudeste 0 -- -- 60
2020-01-15 05:00:00 6.1 16 Sur 40 Sudeste 0 -- -- 62
2020-01-15 04:00:00 5.8 13 Sudeste 30 Sudeste 0 -- -- 68
2020-01-15 03:00:00 5.7 5 Este 23 Sudoeste 0 -- -- 70
2020-01-15 02:00:00 5.4 7 Oeste 25 Sudoeste 0 -- -- 77
2020-01-15 01:00:00 5.2 5 Sudeste 21 Sur 0 -- -- 77
2020-01-15 00:00:00 3.9 10 Oeste 22 Este 0 -- -- 81
2020-01-14 23:00:00 3.3 4 Norte 12 Sudoeste 0 -- -- 81
2020-01-14 22:00:00 3.1 4 Noroeste 15 Oeste 0 -- -- 78
2020-01-14 21:00:00 2.8 4 Oeste 14 Norte 0 -- -- 77
2020-01-14 20:00:00 4.3 6 Sur 17 Sur 0 -- -- 72
2020-01-14 19:00:00 4.8 0 Calma 14 Oeste 0 -- -- 73
2020-01-14 18:00:00 5.5 10 Oeste 15 Oeste 0 -- -- 70
2020-01-14 17:00:00 7.3 3 Oeste 17 Oeste 0 -- -- 65
2020-01-14 16:00:00 7.3 5 Nordeste 11 Nordeste 0 -- -- 59
2020-01-14 15:00:00 7.6 3 Este 7 Este 0 -- -- 55
2020-01-14 14:00:00 6.2 5 Nordeste 10 Nordeste 0 -- -- 58
2020-01-14 13:00:00 5 4 Este 8 Nordeste 0 -- -- 61
2020-01-14 12:00:00 3.5 3 Este 7 Este 0 -- -- 65
2020-01-14 11:00:00 0.2 0 Calma 4 Norte 0 -- -- 74
2020-01-14 10:00:00 -0.3 4 Sur 8 Sur 0 -- -- 66
2020-01-14 09:00:00 -3.7 3 Sur 5 Sur 0 -- -- 75
2020-01-14 08:00:00 -4.1 2 Oeste 5 Oeste 0 -- -- 82
2020-01-14 07:00:00 -3.7 0 Calma 8 Nordeste 0 -- -- 78
2020-01-14 06:00:00 -1.3 5 Sudeste 14 Sur 0 -- -- 69
2020-01-14 05:00:00 -2.1 3 Sudoeste 12 Sur 0 -- -- 72
2020-01-14 04:00:00 -1.6 5 Sudoeste 10 Sudoeste 0 -- -- 70
2020-01-14 03:00:00 -1.5 5 Sur 10 Sur 0 -- -- 69
2020-01-14 02:00:00 -0.2 4 Sudoeste 9 Sur 0 -- -- 64
2020-01-14 01:00:00 -1.4 8 Oeste 12 Oeste 0 -- -- 73
2020-01-14 00:00:00 -0.9 2 Norte 13 Sudeste 0 -- -- 72
2020-01-13 23:00:00 0.2 0 Calma 11 Sur 0 -- -- 66
2020-01-13 22:00:00 2.2 3 Sudoeste 11 Sur 0 -- -- 59
2020-01-13 21:00:00 2.7 2 Sudoeste 13 Sur 0 -- -- 58
2020-01-13 20:00:00 3.3 0 Calma 12 Sur 0 -- -- 58
2020-01-13 19:00:00 3.5 4 Sur 11 Sur 0 -- -- 58
2020-01-13 18:00:00 5.7 2 Sudeste 8 Sur 0 -- -- 54
2020-01-13 17:00:00 7.9 5 Nordeste 10 Nordeste 0 -- -- 49
2020-01-13 16:00:00 8.5 5 Nordeste 10 Nordeste 0 -- -- 42
2020-01-13 15:00:00 8.1 7 Norte 12 Nordeste 0 -- -- 44
2020-01-13 14:00:00 7.9 3 Este 8 Este 0 -- -- 43
2020-01-13 13:00:00 5.3 3 Norte 7 Este 0 -- -- 51
2020-01-13 12:00:00 4.8 3 Este 7 Oeste 0 -- -- 46
2020-01-13 11:00:00 3.6 3 Sudeste 4 Este 0 -- -- 48
2020-01-13 10:00:00 3 0 Calma 9 Sur 0 -- -- 41
2020-01-13 09:00:00 1.9 0 Calma 12 Sur 0 -- -- 39
2020-01-13 08:00:00 -0.6 0 Calma 7 Sur 0 -- -- 48
2020-01-13 07:00:00 0.9 0 Calma 4 Sur 0 -- -- 46
2020-01-13 06:00:00 0.8 2 Oeste 5 Noroeste 0 -- -- 55
2020-01-13 05:00:00 -0.8 0 Calma 5 Sudeste 0 -- -- 61
2020-01-13 04:00:00 -0.4 4 Sur 9 Sur 0 -- -- 56
2020-01-13 03:00:00 0.8 0 Calma 5 Oeste 0 -- -- 49
2020-01-13 02:00:00 1.1 4 Sur 8 Sur 0 -- -- 49
2020-01-13 01:00:00 0.4 0 Calma 6 Sur 0 -- -- 59
2020-01-13 00:00:00 1.8 4 Oeste 11 Sur 0 -- -- 54
2020-01-12 23:00:00 1.5 3 Sudoeste 10 Sur 0 -- -- 57
2020-01-12 22:00:00 2.2 3 Sudoeste 8 Sur 0 -- -- 54
2020-01-12 21:00:00 2.2 6 Sur 9 Sur 0 -- -- 54
2020-01-12 20:00:00 3.2 3 Sur 14 Sur 0 -- -- 52
2020-01-12 19:00:00 4.4 8 Sur 11 Sur 0 -- -- 48
2020-01-12 18:00:00 5.7 0 Calma 7 Este 0 -- -- 47
2020-01-12 17:00:00 8.4 5 Nordeste 8 Nordeste 0 -- -- 43
2020-01-12 16:00:00 9.2 5 Este 15 Nordeste 0 -- -- 41
2020-01-12 15:00:00 10.2 8 Este 11 Este 0 -- -- 32
2020-01-12 14:00:00 9.4 3 Este 6 Nordeste 0 -- -- 38
2020-01-12 13:00:00 7.5 3 Norte 6 Este 0 -- -- 37
2020-01-12 12:00:00 6.5 2 Este 5 Norte 0 -- -- 50
2020-01-12 11:00:00 4.5 0 Calma 4 Sur 0 -- -- 35
2020-01-12 10:00:00 2.4 2 Sur 4 Sur 0 -- -- 38
2020-01-12 09:00:00 -1.4 5 Oeste 8 Oeste 0 -- -- 38
2020-01-12 08:00:00 -1.6 3 Sudeste 7 Noroeste 0 -- -- 42
2020-01-12 07:00:00 -1.2 3 Oeste 12 Sur 0 -- -- 44
2020-01-12 06:00:00 -1.5 3 Sur 9 Sur 0 -- -- 44
2020-01-12 05:00:00 -1.5 0 Calma 9 Sur 0 -- -- 48
2020-01-12 04:00:00 -1.2 5 Sur 8 Sur 0 -- -- 44
2020-01-12 03:00:00 -1 4 Sudoeste 8 Sur 0 -- -- 46
2020-01-12 02:00:00 -1.1 0 Calma 5 Sur 0 -- -- 48
2020-01-12 01:00:00 -0.8 0 Calma 5 Sur 0 -- -- 50
2020-01-12 00:00:00 -0.3 0 Calma 11 Sur 0 -- -- 49
2020-01-11 23:00:00 0.2 0 Calma 5 Sur 0 -- -- 49
2020-01-11 22:00:00 1 0 Calma 8 Sur 0 -- -- 46
2020-01-11 21:00:00 1.8 5 Sur 8 Sur 0 -- -- 40
2020-01-11 20:00:00 2.1 3 Sudeste 13 Sur 0 -- -- 40
2020-01-11 19:00:00 3.5 12 Sur 14 Sur 0 -- -- 31
2020-01-11 18:00:00 4.3 12 Sur 14 Sudoeste 0 -- -- 35
2020-01-11 17:00:00 8.4 4 Sur 9 Este 0 -- -- 35
2020-01-11 16:00:00 8.6 5 Nordeste 8 Este 0 -- -- 26
2020-01-11 15:00:00 8 3 Norte 8 Nordeste 0 -- -- 31
2020-01-11 14:00:00 6.9 3 Norte 7 Este 0 -- -- 39
2020-01-11 13:00:00 5.9 2 Nordeste 7 Nordeste 0 -- -- 54
2020-01-11 12:00:00 3.7 3 Este 5 Sudeste 0 -- -- 73
2020-01-11 11:00:00 1.1 0 Calma 4 Sudeste 0 -- -- 76
2020-01-11 10:00:00 -1.6 0 Calma 4 Oeste 0 -- -- 86
2020-01-11 09:00:00 -3.6 0 Calma 4 Sur 0 -- -- 90
2020-01-11 08:00:00 -2.7 0 Calma 6 Sur 0 -- -- 87
2020-01-11 07:00:00 -2.6 0 Calma 5 Sur 0 -- -- 86
2020-01-11 06:00:00 -2.1 0 Calma 5 Sur 0 -- -- 82
2020-01-11 05:00:00 -1.4 2 Sur 5 Noroeste 0 -- -- 84
2020-01-11 04:00:00 -1.3 0 Calma 4 Sur 0 -- -- 87
2020-01-11 03:00:00 -0.2 3 Sur 7 Sur 0 -- -- 83
2020-01-11 02:00:00 0.4 3 Sur 10 Sur 0 -- -- 79
2020-01-11 01:00:00 1.5 6 Sur 14 Sudeste 0 -- -- 79
2020-01-11 00:00:00 2.3 8 Sudeste 17 Este 0 -- -- 81
2020-01-10 23:00:00 2.4 10 Este 17 Este 0 -- -- 81
2020-01-10 22:00:00 1.8 7 Sudeste 13 Este 0 -- -- 79
2020-01-10 21:00:00 2.4 5 Este 14 Este 0 -- -- 75
2020-01-10 20:00:00 3.4 6 Este 20 Este 0 -- -- 71
2020-01-10 19:00:00 3.5 14 Este 23 Este 0 -- -- 70
2020-01-10 18:00:00 3.8 10 Este 20 Este 0 -- -- 71
2020-01-10 17:00:00 4.2 13 Este 26 Este 0 -- -- 67
2020-01-10 16:00:00 4.7 16 Este 27 Nordeste 0 -- -- 65
2020-01-10 15:00:00 5 14 Este 24 Este 0 -- -- 66
2020-01-10 14:00:00 5.6 9 Este 18 Este 0 -- -- 65
2020-01-10 13:00:00 5.2 8 Este 12 Nordeste 0 -- -- 66
2020-01-10 12:00:00 4.6 5 Nordeste 16 Sudeste 0 -- -- 66
2020-01-10 11:00:00 3.6 4 Este 13 Este 0 -- -- 72
2020-01-10 10:00:00 0.3 4 Sur 6 Sudoeste 0 -- -- 85
2020-01-10 09:00:00 0.3 3 Noroeste 9 Sudoeste 0 -- -- 82
2020-01-10 08:00:00 0.5 5 Oeste 8 Noroeste 0 -- -- 80
2020-01-10 07:00:00 0.3 3 Sudoeste 14 Oeste 0 -- -- 83
2020-01-10 06:00:00 1.8 8 Sudoeste 17 Sudoeste 0 -- -- 75
2020-01-10 05:00:00 1.6 12 Sudoeste 15 Sudoeste 0 -- -- 86
2020-01-10 04:00:00 2.3 8 Oeste 30 Oeste 0 -- -- 83
2020-01-10 03:00:00 2.6 19 Oeste 28 Oeste 0 -- -- 82
2020-01-10 02:00:00 3.3 6 Oeste 23 Oeste 0 -- -- 85
2020-01-10 01:00:00 4.3 14 Oeste 30 Oeste 0 -- -- 83
2020-01-10 00:00:00 4.9 17 Oeste 37 Oeste 0 -- -- 83
2020-01-09 23:00:00 5.8 21 Noroeste 32 Oeste 0 -- -- 84
2020-01-09 22:00:00 6.2 10 Noroeste 30 Noroeste 0 -- -- 88
2020-01-09 21:00:00 7.7 11 Oeste 36 Oeste 0 -- -- 81
2020-01-09 20:00:00 8.5 15 Oeste 27 Oeste 0 -- -- 77
2020-01-09 19:00:00 9 19 Oeste 39 Oeste 0 -- -- 76
2020-01-09 18:00:00 10.2 21 Oeste 45 Oeste 0 -- -- 71
2020-01-09 17:00:00 11.7 19 Oeste 34 Oeste 0 -- -- 60
2020-01-09 16:00:00 11.9 14 Noroeste 36 Oeste 0 -- -- 64
2020-01-09 15:00:00 12.1 18 Noroeste 29 Noroeste 0 -- -- 61
2020-01-09 14:00:00 11 18 Oeste 39 Oeste 0 -- -- 70
2020-01-09 13:00:00 10.7 19 Oeste 39 Oeste 0 -- -- 63
2020-01-09 12:00:00 9 17 Oeste 27 Oeste 0 -- -- 54
2020-01-09 11:00:00 7.8 0 Calma 6 Sudeste 0 -- -- 67
2020-01-09 10:00:00 4.2 3 Este 10 Noroeste 0 -- -- 70
2020-01-09 09:00:00 3.2 6 Sur 10 Sur 0 -- -- 71
2020-01-09 08:00:00 1.9 0 Calma 9 Sur 0 -- -- 75
2020-01-09 07:00:00 4 6 Sur 9 Sur 0 -- -- 68
2020-01-09 06:00:00 3.4 0 Calma 6 Oeste 0 -- -- 72
2020-01-09 05:00:00 3 0 Calma 6 Sur 0 -- -- 71
2020-01-09 04:00:00 4.3 0 Calma 4 Oeste 0 -- -- 69
2020-01-09 03:00:00 4.2 4 Sudoeste 6 Sur 0 -- -- 69
2020-01-09 02:00:00 4.8 0 Calma 5 Sur 0 -- -- 68
2020-01-09 01:00:00 4.4 3 Oeste 5 Oeste 0 -- -- 69
2020-01-09 00:00:00 4.8 0 Calma 6 Sur 0 -- -- 65
2020-01-08 23:00:00 6.4 6 Sur 10 Sur 0 -- -- 61
2020-01-08 22:00:00 5.9 6 Sur 9 Sur 0 -- -- 62
2020-01-08 21:00:00 6.7 7 Sur 9 Sur 0 -- -- 59
2020-01-08 20:00:00 7.1 6 Sur 8 Sur 0 -- -- 56
2020-01-08 19:00:00 8.5 3 Oeste 4 Sudoeste 0 -- -- 55
2020-01-08 18:00:00 10.5 5 Sur 12 Sur 0 -- -- 43
2020-01-08 17:00:00 14.7 3 Sur 8 Sur 0 -- -- 32
2020-01-08 16:00:00 14.4 0 Calma 5 Nordeste 0 -- -- 29
2020-01-08 15:00:00 13.4 0 Calma 4 Este 0 -- -- 28
2020-01-08 14:00:00 12.5 0 Calma 3 Nordeste 0 -- -- 34
2020-01-08 13:00:00 11.1 0 Calma 4 Este 0 -- -- 32
2020-01-08 12:00:00 9.1 0 Calma 7 Oeste 0 -- -- 38
2020-01-08 11:00:00 7.3 4 Sur 7 Sur 0 -- -- 34
2020-01-08 10:00:00 3.5 4 Sudeste 7 Oeste 0 -- -- 36
2020-01-08 09:00:00 1.9 4 Oeste 6 Oeste 0 -- -- 39
2020-01-08 08:00:00 2.4 0 Calma 4 Sur 0 -- -- 42
2020-01-08 07:00:00 4.7 4 Sur 10 Sur 0 -- -- 32
2020-01-08 06:00:00 3.5 0 Calma 9 Sur 0 -- -- 36
2020-01-08 05:00:00 3.3 5 Sur 8 Sur 0 -- -- 37
2020-01-08 04:00:00 2.8 2 Sudeste 7 Sur 0 -- -- 42
2020-01-08 03:00:00 2.5 0 Calma 9 Sur 0 -- -- 45
2020-01-08 02:00:00 2.9 4 Sur 6 Oeste 0 -- -- 44
2020-01-08 01:00:00 2.8 3 Noroeste 6 Oeste 0 -- -- 47
2020-01-08 00:00:00 4 2 Sudeste 8 Sur 0 -- -- 42
2020-01-07 23:00:00 5.5 3 Sudoeste 8 Sur 0 -- -- 34
2020-01-07 22:00:00 5.4 3 Sur 11 Sur 0 -- -- 37
2020-01-07 21:00:00 6.1 10 Sur 13 Sur 0 -- -- 34
2020-01-07 20:00:00 6.9 6 Sur 11 Sur 0 -- -- 36
2020-01-07 19:00:00 8.1 5 Sur 12 Sur 0 -- -- 37
2020-01-07 18:00:00 9.3 9 Sur 11 Sur 0 -- -- 41
2020-01-07 17:00:00 13.4 0 Calma 4 Nordeste 0 -- -- 45
2020-01-07 16:00:00 13.7 0 Calma 6 Este 0 -- -- 44
2020-01-07 15:00:00 13.4 4 Este 8 Este 0 -- -- 44
2020-01-07 14:00:00 13 4 Este 6 Este 0 -- -- 43
2020-01-07 13:00:00 12.1 3 Este 5 Este 0 -- -- 42
2020-01-07 12:00:00 10.1 0 Calma 2 Sudeste 0 -- -- 49
2020-01-07 11:00:00 8.1 0 Calma 2 Sur 0 -- -- 40
2020-01-07 10:00:00 5 0 Calma 5 Sur 0 -- -- 47
2020-01-07 09:00:00 2.9 0 Calma 4 Oeste 0 -- -- 45
2020-01-07 08:00:00 2.7 0 Calma 6 Sur 0 -- -- 48
2020-01-07 07:00:00 3.4 3 Oeste 12 Sur 0 -- -- 45
2020-01-07 06:00:00 2.7 3 Oeste 8 Sur 0 -- -- 53
2020-01-07 05:00:00 2.2 0 Calma 14 Sur 0 -- -- 57
2020-01-07 04:00:00 1 3 Sudoeste 7 Noroeste 0 -- -- 64
2020-01-07 03:00:00 1.5 0 Calma 9 Sur 0 -- -- 62
2020-01-07 02:00:00 2.6 6 Sur 10 Sur 0 -- -- 56
2020-01-07 01:00:00 2.4 5 Sur 9 Sur 0 -- -- 60
2020-01-07 00:00:00 3.2 4 Sudoeste 9 Sudoeste 0 -- -- 57
2020-01-06 23:00:00 2.9 0 Calma 8 Sur 0 -- -- 60
2020-01-06 22:00:00 3.2 5 Noroeste 9 Oeste 0 -- -- 58
2020-01-06 21:00:00 6 2 Oeste 12 Sur 0 -- -- 48
2020-01-06 20:00:00 6.5 6 Sur 12 Sur 0 -- -- 45
2020-01-06 19:00:00 8 10 Sur 14 Sur 0 -- -- 39
2020-01-06 18:00:00 9.2 11 Sur 14 Sur 0 -- -- 37
2020-01-06 17:00:00 12 7 Sur 10 Sur 0 -- -- 33
2020-01-06 16:00:00 12.9 3 Nordeste 9 Nordeste 0 -- -- 31
2020-01-06 15:00:00 13.2 5 Nordeste 9 Este 0 -- -- 28
2020-01-06 14:00:00 12.6 8 Este 11 Nordeste 0 -- -- 33
2020-01-06 13:00:00 12.4 4 Nordeste 6 Nordeste 0 -- -- 39
2020-01-06 12:00:00 10.8 0 Calma 4 Norte 0 -- -- 36
2020-01-06 11:00:00 6.7 0 Calma 5 Sudeste 0 -- -- 49
2020-01-06 10:00:00 4.3 0 Calma 6 Oeste 0 -- -- 47